createdAt,value
2023-04-14T07:01:04.036Z,8.57
2023-04-14T07:02:06.177Z,8.80
2023-04-14T07:03:07.790Z,8.75
2023-04-14T07:04:10.063Z,9.02
2023-04-14T07:05:11.608Z,9.05
2023-04-14T07:06:16.918Z,9.13
2023-04-14T07:07:18.427Z,9.43
2023-04-14T07:08:20.454Z,9.34
2023-04-14T07:09:22.773Z,9.69
2023-04-14T07:10:24.200Z,10.06
2023-04-14T07:11:25.657Z,9.98
2023-04-14T07:12:27.075Z,10.14
2023-04-14T07:13:29.435Z,10.27
2023-04-14T07:14:32.138Z,10.24
2023-04-14T07:15:33.503Z,10.03
2023-04-14T07:16:35.005Z,10.36
2023-04-14T07:17:36.687Z,10.49
2023-04-14T07:18:38.236Z,10.53
2023-04-14T07:19:39.637Z,10.71
2023-04-14T07:20:41.602Z,10.97
2023-04-14T07:21:44.785Z,11.29
2023-04-14T07:22:46.369Z,11.49
2023-04-14T07:23:47.732Z,11.31
2023-04-14T07:24:49.246Z,11.63
2023-04-14T07:25:55.641Z,11.73
2023-04-14T07:26:57.077Z,11.58
2023-04-14T07:28:03.627Z,11.68
2023-04-14T07:29:05.537Z,11.71
2023-04-14T07:30:07.948Z,11.74
2023-04-14T07:31:10.204Z,11.69
2023-04-14T07:32:13.584Z,11.48
2023-04-14T07:33:19.114Z,11.38
2023-04-14T07:34:20.649Z,11.54
2023-04-14T07:35:24.985Z,12.07
2023-04-14T07:36:26.447Z,12.34
2023-04-14T07:37:28.396Z,12.28
2023-04-14T07:38:29.960Z,12.09
2023-04-14T07:39:31.338Z,11.95
2023-04-14T07:40:32.718Z,12.17
2023-04-14T07:41:34.294Z,12.09
2023-04-14T07:42:36.703Z,11.87
2023-04-14T07:43:39.953Z,12.42
2023-04-14T07:44:41.486Z,12.37
2023-04-14T07:45:43.274Z,11.81
2023-04-14T07:46:44.716Z,12.06
2023-04-14T07:47:46.887Z,12.12
2023-04-14T07:48:48.394Z,11.99
2023-04-14T07:49:49.819Z,12.08
2023-04-14T07:50:51.251Z,11.97
2023-04-14T07:51:52.677Z,12.03
2023-04-14T07:52:54.204Z,12.43
2023-04-14T07:53:56.041Z,12.71
2023-04-14T07:54:57.445Z,12.99
2023-04-14T07:55:59.471Z,12.97
2023-04-14T07:57:01.321Z,12.86
2023-04-14T07:58:03.097Z,12.75
2023-04-14T07:59:04.491Z,12.90
2023-04-14T08:00:06.601Z,13.05
2023-04-14T08:01:08.044Z,13.23
2023-04-14T08:02:09.915Z,13.08
2023-04-14T08:03:11.640Z,12.81
2023-04-14T08:04:13.336Z,12.70
2023-04-14T08:05:15.036Z,13.08
2023-04-14T08:06:16.790Z,13.34
2023-04-14T08:07:18.242Z,13.59
2023-04-14T08:08:19.634Z,13.47
2023-04-14T08:09:21.081Z,13.30
2023-04-14T08:10:22.516Z,12.78
2023-04-14T08:11:24.288Z,12.96
2023-04-14T08:12:25.981Z,12.98
2023-04-14T08:13:28.068Z,12.70
2023-04-14T08:14:29.572Z,13.13
2023-04-14T08:15:32.095Z,13.11
2023-04-14T08:16:36.762Z,12.88
2023-04-14T08:17:38.472Z,12.39
2023-04-14T08:18:40.682Z,12.43
2023-04-14T08:19:42.172Z,12.79
2023-04-14T08:20:44.209Z,12.81
2023-04-14T08:21:45.923Z,12.89
2023-04-14T08:22:47.383Z,13.09
2023-04-14T08:23:48.932Z,12.72
2023-04-14T08:24:50.653Z,12.79
2023-04-14T08:25:52.029Z,12.77
2023-04-14T08:26:54.773Z,12.62
2023-04-14T08:27:56.174Z,12.52
2023-04-14T08:28:57.604Z,12.87
2023-04-14T08:29:59.223Z,12.40
2023-04-14T08:31:00.594Z,12.12
2023-04-14T08:32:01.999Z,12.46
2023-04-14T08:33:03.673Z,12.73
2023-04-14T08:34:05.333Z,12.52
2023-04-14T08:35:36.837Z,12.70
2023-04-14T08:36:28.528Z,12.18
2023-04-14T08:37:29.908Z,12.17
2023-04-14T08:38:31.453Z,12.33
2023-04-14T08:39:32.879Z,12.32
2023-04-14T08:40:42.900Z,12.17
2023-04-14T08:41:44.386Z,12.24
2023-04-14T08:42:46.280Z,12.67
2023-04-14T08:43:47.801Z,12.60
2023-04-14T08:44:49.280Z,12.49
2023-04-14T08:45:52.973Z,12.64
2023-04-14T08:46:55.844Z,12.34
2023-04-14T08:47:58.661Z,12.76
2023-04-14T08:49:05.703Z,12.36
2023-04-14T08:50:13.491Z,12.38
2023-04-14T08:51:32.207Z,11.93
2023-04-14T08:52:36.864Z,11.48
2023-04-14T08:53:45.746Z,11.44
2023-04-14T08:54:50.190Z,11.35
2023-04-14T08:55:52.618Z,11.95
2023-04-14T08:56:58.442Z,12.48
2023-04-14T08:58:02.419Z,12.01
2023-04-14T08:59:06.797Z,12.25
2023-04-14T09:00:09.689Z,12.38
2023-04-14T09:01:12.056Z,12.23
2023-04-14T09:02:14.334Z,11.84
2023-04-14T09:03:16.519Z,11.91
2023-04-14T09:04:20.274Z,11.84
2023-04-14T09:05:21.931Z,12.01
2023-04-14T09:06:24.066Z,11.49
2023-04-14T09:07:26.632Z,11.99
2023-04-14T09:08:33.832Z,12.21
2023-04-14T09:09:35.385Z,12.42
2023-04-14T09:10:38.136Z,12.37
2023-04-14T09:11:41.579Z,12.79
2023-04-14T09:12:43.880Z,12.98
2023-04-14T09:13:45.546Z,12.76
2023-04-14T09:14:48.356Z,12.95
2023-04-14T09:15:49.986Z,13.03
2023-04-14T09:16:53.828Z,13.23
2023-04-14T09:17:55.540Z,13.43
2023-04-14T09:19:00.057Z,13.61
2023-04-14T09:20:37.434Z,13.78
2023-04-14T09:21:52.524Z,12.96
2023-04-14T09:22:53.240Z,12.40
2023-04-14T09:23:54.938Z,12.71
2023-04-14T09:24:57.389Z,12.81
2023-04-14T09:25:58.919Z,12.43
2023-04-14T09:27:03.675Z,12.86
2023-04-14T09:28:05.054Z,12.72
2023-04-14T09:29:06.636Z,13.11
2023-04-14T09:30:09.656Z,13.44
2023-04-14T09:31:11.484Z,13.61
2023-04-14T09:32:12.989Z,14.13
2023-04-14T09:34:28.550Z,12.94
2023-04-14T09:35:45.624Z,12.16
2023-04-14T09:37:04.626Z,11.92
2023-04-14T09:38:06.855Z,12.18
2023-04-14T09:39:17.856Z,12.37
2023-04-14T09:40:29.144Z,12.50
2023-04-14T09:41:31.550Z,12.80
2023-04-14T09:42:40.977Z,13.12
2023-04-14T09:43:42.877Z,13.28
2023-04-14T09:44:58.047Z,13.37
2023-04-14T09:46:08.621Z,13.80
2023-04-14T09:47:10.532Z,14.12
2023-04-14T09:48:15.544Z,14.09
2023-04-14T09:49:17.012Z,13.58
2023-04-14T09:50:18.543Z,12.99
2023-04-14T09:51:29.886Z,13.15
2023-04-14T09:52:39.815Z,13.50
2023-04-14T09:53:41.306Z,13.55
2023-04-14T09:54:43.193Z,13.78
2023-04-14T09:55:45.435Z,14.18
2023-04-14T09:56:46.886Z,13.99
2023-04-14T09:57:48.381Z,14.21
2023-04-14T09:58:50.327Z,14.68
2023-04-14T09:59:51.785Z,14.53
2023-04-14T10:00:53.162Z,14.33
2023-04-14T10:01:58.481Z,13.72
2023-04-14T10:03:01.438Z,12.49
2023-04-14T10:04:03.282Z,12.05
2023-04-14T10:05:06.463Z,11.85
2023-04-14T10:06:10.586Z,11.65
2023-04-14T10:07:12.401Z,11.53
2023-04-14T10:08:13.922Z,11.14
2023-04-14T10:09:23.099Z,11.18
2023-04-14T10:10:24.421Z,10.98
2023-04-14T10:11:29.365Z,10.82
2023-04-14T10:12:31.284Z,10.84
2023-04-14T10:13:32.754Z,11.58
2023-04-14T10:14:34.473Z,12.25
2023-04-14T10:15:36.056Z,12.60
2023-04-14T10:16:37.442Z,12.69
2023-04-14T10:17:39.408Z,12.51
2023-04-14T10:18:40.923Z,12.60
2023-04-14T10:19:43.027Z,12.66
2023-04-14T10:20:44.591Z,12.84
2023-04-14T10:21:46.101Z,13.38
2023-04-14T10:22:48.067Z,13.75
2023-04-14T10:23:50.572Z,13.22
2023-04-14T10:24:52.468Z,13.22
2023-04-14T10:25:54.829Z,14.63
2023-04-14T10:26:57.439Z,15.02
2023-04-14T10:27:59.013Z,15.89
2023-04-14T10:29:02.834Z,16.04
2023-04-14T10:30:06.468Z,16.35
2023-04-14T10:31:11.903Z,15.30
2023-04-14T10:32:16.159Z,14.72
2023-04-14T10:33:17.635Z,13.91
2023-04-14T10:34:19.482Z,13.52
2023-04-14T10:35:21.435Z,13.47
2023-04-14T10:36:27.996Z,13.66
2023-04-14T10:37:29.623Z,13.46
2023-04-14T10:38:38.341Z,13.03
2023-04-14T10:39:41.024Z,12.62
2023-04-14T10:40:47.192Z,12.86
2023-04-14T10:41:52.993Z,14.08
2023-04-14T10:42:55.709Z,14.81
2023-04-14T10:43:57.083Z,14.91
2023-04-14T10:45:05.826Z,15.22
2023-04-14T10:46:10.225Z,16.14
2023-04-14T10:47:23.429Z,16.70
2023-04-14T10:48:33.652Z,16.73
2023-04-14T10:49:40.169Z,16.37
2023-04-14T10:50:48.837Z,15.90
2023-04-14T10:51:50.345Z,16.55
2023-04-14T10:52:55.913Z,17.36
2023-04-14T10:53:58.053Z,17.90
2023-04-14T10:55:09.499Z,17.00
2023-04-14T10:56:11.230Z,16.46
2023-04-14T10:57:14.583Z,16.07
2023-04-14T10:58:20.932Z,17.01
2023-04-14T10:59:22.361Z,16.17
2023-04-14T11:00:28.974Z,15.78
2023-04-14T11:01:32.665Z,15.05
2023-04-14T11:02:35.056Z,15.68
2023-04-14T11:03:44.984Z,15.75
2023-04-14T11:04:58.615Z,15.85
2023-04-14T11:06:00.049Z,17.51
2023-04-14T11:07:09.324Z,18.49
2023-04-14T11:08:35.369Z,16.92
2023-04-14T11:09:37.313Z,17.28
2023-04-14T11:10:38.818Z,16.95
2023-04-14T11:11:42.142Z,16.73
2023-04-14T11:12:45.025Z,16.56
2023-04-14T11:14:12.499Z,17.50
2023-04-14T11:15:16.194Z,17.73
2023-04-14T11:16:27.933Z,18.59
2023-04-14T11:17:34.071Z,18.73
2023-04-14T11:18:46.323Z,19.72
2023-04-14T11:19:48.175Z,20.00
2023-04-14T11:20:52.029Z,19.95
2023-04-14T11:21:54.058Z,18.85
2023-04-14T11:22:58.789Z,19.03
2023-04-14T11:24:00.829Z,18.70
2023-04-14T11:25:02.367Z,19.46
2023-04-14T11:26:08.354Z,18.23
2023-04-14T11:27:11.450Z,18.46
2023-04-14T11:28:13.070Z,17.85
2023-04-14T11:29:14.463Z,17.25
2023-04-14T11:30:20.394Z,16.94
2023-04-14T11:31:27.423Z,17.03
2023-04-14T11:32:29.302Z,16.86
2023-04-14T11:33:32.046Z,18.21
2023-04-14T11:34:34.373Z,18.16
2023-04-14T11:35:36.022Z,19.42
2023-04-14T11:36:39.221Z,18.88
2023-04-14T11:37:41.078Z,17.86
2023-04-14T11:38:43.196Z,16.64
2023-04-14T11:39:44.745Z,16.70
2023-04-14T11:40:49.834Z,17.96
2023-04-14T11:41:51.564Z,16.51
2023-04-14T11:42:58.003Z,16.49
2023-04-14T11:43:59.473Z,17.66
2023-04-14T11:45:03.803Z,16.82
2023-04-14T11:46:08.017Z,16.37
2023-04-14T11:47:09.387Z,16.64
2023-04-14T11:48:12.399Z,17.86
2023-04-14T11:49:13.856Z,18.98
2023-04-14T11:50:16.920Z,19.46
2023-04-14T11:51:18.881Z,19.32
2023-04-14T11:52:21.144Z,20.21
2023-04-14T11:53:22.925Z,19.64
2023-04-14T11:54:35.018Z,20.12
2023-04-14T11:55:37.065Z,20.77
2023-04-14T11:56:39.387Z,20.75
2023-04-14T11:57:47.111Z,19.78
2023-04-14T11:58:48.992Z,19.51
2023-04-14T11:59:50.707Z,19.08
2023-04-14T12:00:55.674Z,19.49
2023-04-14T12:01:58.395Z,19.64
2023-04-14T12:03:03.588Z,20.38
2023-04-14T12:04:06.438Z,20.82
2023-04-14T12:05:08.411Z,19.42
2023-04-14T12:06:10.291Z,19.75
2023-04-14T12:07:17.084Z,20.60
2023-04-14T12:08:18.531Z,21.13
2023-04-14T12:09:19.898Z,20.86
2023-04-14T12:10:22.055Z,20.25
2023-04-14T12:11:24.006Z,19.78
2023-04-14T12:12:28.809Z,19.14
2023-04-14T12:13:30.823Z,19.14
2023-04-14T12:14:32.390Z,19.98
2023-04-14T12:15:38.678Z,20.85
2023-04-14T12:16:40.787Z,20.31
2023-04-14T12:17:42.689Z,19.84
2023-04-14T12:18:44.576Z,20.94
2023-04-14T12:19:46.326Z,21.63
2023-04-14T12:20:53.148Z,20.01
2023-04-14T12:21:54.576Z,18.68
2023-04-14T12:23:04.317Z,19.78
2023-04-14T12:24:06.105Z,18.96
2023-04-14T12:25:13.522Z,19.15
2023-04-14T12:26:15.919Z,18.01
2023-04-14T12:27:22.412Z,18.36
2023-04-14T12:28:29.293Z,17.78
2023-04-14T12:29:33.140Z,17.57
2023-04-14T12:30:36.039Z,16.43
2023-04-14T12:31:43.106Z,15.84
2023-04-14T12:32:46.174Z,14.85
2023-04-14T12:33:49.976Z,14.74
2023-04-14T12:34:57.722Z,15.49
2023-04-14T12:36:03.277Z,15.99
2023-04-14T12:37:12.073Z,16.35
2023-04-14T12:38:14.774Z,16.60
2023-04-14T12:39:16.457Z,16.24
2023-04-14T12:40:18.408Z,16.30
2023-04-14T12:41:23.835Z,16.43
2023-04-14T12:42:27.233Z,16.73
2023-04-14T12:43:37.347Z,16.61
2023-04-14T12:44:38.951Z,16.46
2023-04-14T12:45:51.088Z,17.01
2023-04-14T12:46:53.709Z,17.96
2023-04-14T12:47:56.849Z,17.95
2023-04-14T12:48:58.634Z,18.22
2023-04-14T12:50:02.205Z,18.15
2023-04-14T12:51:12.626Z,17.31
2023-04-14T12:52:37.185Z,18.51
2023-04-14T12:53:39.357Z,19.07
2023-04-14T12:54:48.348Z,19.25
2023-04-14T12:56:08.303Z,18.31
2023-04-14T12:57:09.781Z,18.75
2023-04-14T12:58:11.214Z,19.67
2023-04-14T12:59:12.729Z,18.60
2023-04-14T13:00:14.542Z,17.44
2023-04-14T13:01:18.363Z,17.24
2023-04-14T13:02:19.931Z,17.24
2023-04-14T13:03:21.523Z,17.23
2023-04-14T13:04:23.237Z,17.18
2023-04-14T13:05:24.819Z,17.88
2023-04-14T13:06:26.167Z,17.87
2023-04-14T13:07:27.507Z,17.71
2023-04-14T13:08:29.498Z,17.31
2023-04-14T13:09:31.712Z,17.37
2023-04-14T13:10:33.217Z,18.41
2023-04-14T13:11:34.684Z,18.47
2023-04-14T13:12:36.072Z,19.38
2023-04-14T13:13:37.679Z,19.82
2023-04-14T13:14:39.186Z,20.11
2023-04-14T13:16:12.108Z,20.50
2023-04-14T13:17:02.983Z,20.02
2023-04-14T13:18:04.686Z,19.65
2023-04-14T13:19:06.293Z,18.46
2023-04-14T13:20:08.808Z,17.92
2023-04-14T13:21:10.621Z,17.41
2023-04-14T13:22:14.224Z,17.53
2023-04-14T13:23:15.853Z,17.67
2023-04-14T13:24:17.283Z,17.30
2023-04-14T13:25:18.620Z,16.53
2023-04-14T13:26:20.010Z,16.37
2023-04-14T13:27:21.456Z,17.19
2023-04-14T13:28:22.915Z,17.75
2023-04-14T13:29:24.300Z,17.93
2023-04-14T13:30:25.650Z,18.64
2023-04-14T13:31:27.082Z,18.49
2023-04-14T13:32:28.531Z,18.19
2023-04-14T13:33:29.965Z,18.31
2023-04-14T13:34:32.419Z,19.03
2023-04-14T13:35:33.834Z,18.65
2023-04-14T13:36:35.306Z,18.61
2023-04-14T13:37:36.671Z,18.96
2023-04-14T13:38:38.134Z,19.57
2023-04-14T13:39:39.833Z,20.07
2023-04-14T13:40:41.308Z,20.36
2023-04-14T13:41:43.482Z,18.60
2023-04-14T13:42:45.206Z,17.55
2023-04-14T13:43:46.798Z,17.74
2023-04-14T13:44:48.722Z,17.48
2023-04-14T13:45:50.286Z,17.01
2023-04-14T13:46:52.274Z,17.20
2023-04-14T13:47:54.074Z,17.49
2023-04-14T13:48:55.454Z,17.93
2023-04-14T13:49:56.822Z,17.35
2023-04-14T13:50:59.392Z,17.58
2023-04-14T13:52:00.732Z,17.30
2023-04-14T13:53:02.179Z,16.90
2023-04-14T13:54:03.765Z,16.19
2023-04-14T13:55:05.489Z,15.60
2023-04-14T13:56:07.066Z,15.99
2023-04-14T13:57:08.465Z,16.15
2023-04-14T13:58:09.901Z,16.57
2023-04-14T13:59:11.412Z,16.37
2023-04-14T14:00:13.513Z,16.20
2023-04-14T14:01:14.893Z,16.07
2023-04-14T14:02:16.530Z,16.47
2023-04-14T14:03:18.169Z,16.95
2023-04-14T14:04:19.781Z,16.86
2023-04-14T14:05:21.246Z,17.72
2023-04-14T14:06:22.647Z,18.28
2023-04-14T14:07:24.032Z,18.57
2023-04-14T14:08:25.373Z,17.75
2023-04-14T14:09:27.544Z,16.92
2023-04-14T14:10:29.141Z,16.82
2023-04-14T14:11:31.444Z,16.69
2023-04-14T14:12:32.837Z,16.92
2023-04-14T14:13:36.858Z,17.63
2023-04-14T14:14:38.403Z,17.97
2023-04-14T14:15:39.974Z,17.42
2023-04-14T14:16:41.476Z,17.49
2023-04-14T14:17:42.966Z,16.88
2023-04-14T14:18:46.386Z,17.51
2023-04-14T14:19:48.236Z,17.92
2023-04-14T14:20:49.631Z,18.13
2023-04-14T14:21:51.400Z,18.36
2023-04-14T14:22:52.817Z,18.00
2023-04-14T14:23:54.145Z,18.13
2023-04-14T14:25:10.961Z,17.93
2023-04-14T14:26:17.470Z,18.72
2023-04-14T14:27:18.821Z,18.37
2023-04-14T14:28:21.204Z,17.93
2023-04-14T14:29:22.930Z,18.69
2023-04-14T14:30:24.326Z,18.71
2023-04-14T14:31:25.994Z,18.08
2023-04-14T14:32:27.432Z,18.79
2023-04-14T14:33:28.963Z,18.10
2023-04-14T14:34:30.388Z,18.48
2023-04-14T14:35:31.892Z,18.62
2023-04-14T14:36:33.321Z,17.66
2023-04-14T14:37:34.756Z,18.10
2023-04-14T14:38:37.169Z,18.69
2023-04-14T14:39:38.606Z,18.38
2023-04-14T14:40:40.132Z,19.14
2023-04-14T14:41:42.077Z,19.37
2023-04-14T14:42:44.488Z,20.12
2023-04-14T14:43:45.885Z,19.86
2023-04-14T14:44:47.365Z,20.34
2023-04-14T14:45:48.777Z,20.35
2023-04-14T14:46:52.849Z,20.17
2023-04-14T14:47:54.405Z,19.52
2023-04-14T14:48:55.840Z,19.86
2023-04-14T14:50:02.677Z,19.92
2023-04-14T14:51:05.942Z,19.90
2023-04-14T14:52:07.426Z,19.90
2023-04-14T14:53:09.606Z,20.41
2023-04-14T14:54:11.068Z,20.33
2023-04-14T14:55:12.504Z,19.89
2023-04-14T14:56:13.904Z,19.74
2023-04-14T14:57:15.298Z,20.55
2023-04-14T14:58:16.629Z,20.90
2023-04-14T14:59:17.956Z,21.67
2023-04-14T15:00:19.545Z,22.24
2023-04-14T15:01:20.977Z,21.87
2023-04-14T15:02:22.751Z,21.65
2023-04-14T15:03:24.566Z,21.50
2023-04-14T15:04:26.407Z,21.89
2023-04-14T15:05:27.863Z,21.45
2023-04-14T15:06:29.250Z,21.52
2023-04-14T15:07:31.430Z,21.26
2023-04-14T15:08:33.081Z,21.52
2023-04-14T15:09:34.440Z,20.85
2023-04-14T15:10:35.900Z,19.71
2023-04-14T15:11:37.448Z,20.02
2023-04-14T15:12:38.817Z,20.77
2023-04-14T15:13:40.336Z,20.82
2023-04-14T15:14:42.216Z,20.24
2023-04-14T15:15:43.632Z,20.46
2023-04-14T15:16:45.261Z,20.02
2023-04-14T15:17:46.887Z,19.02
2023-04-14T15:18:48.299Z,18.80
2023-04-14T15:19:49.713Z,18.78
2023-04-14T15:20:53.751Z,18.96
2023-04-14T15:21:55.119Z,17.53
2023-04-14T15:22:56.503Z,18.60
2023-04-14T15:23:58.508Z,18.52
2023-04-14T15:24:59.871Z,18.13
2023-04-14T15:26:01.694Z,18.23
2023-04-14T15:27:03.427Z,17.71
2023-04-14T15:28:04.817Z,17.95
2023-04-14T15:29:06.339Z,17.95
2023-04-14T15:30:08.481Z,17.75
2023-04-14T15:31:09.872Z,17.28
2023-04-14T15:32:12.057Z,16.97
2023-04-14T15:33:13.433Z,17.28
2023-04-14T15:34:14.815Z,16.89
2023-04-14T15:35:16.745Z,17.27
2023-04-14T15:36:18.142Z,18.07
2023-04-14T15:37:19.628Z,18.22
2023-04-14T15:38:21.089Z,18.84
2023-04-14T15:39:22.656Z,18.92
2023-04-14T15:40:24.120Z,19.01
2023-04-14T15:41:25.985Z,18.96
2023-04-14T15:42:27.359Z,18.57
2023-04-14T15:43:29.056Z,18.41
2023-04-14T15:44:30.441Z,17.94
2023-04-14T15:45:31.992Z,18.56
2023-04-14T15:46:33.410Z,18.54
2023-04-14T15:47:34.873Z,18.36
2023-04-14T15:48:36.267Z,18.92
2023-04-14T15:49:37.593Z,18.89
2023-04-14T15:50:44.664Z,19.04
2023-04-14T15:51:46.527Z,19.26
2023-04-14T15:52:49.470Z,19.60
2023-04-14T15:53:51.683Z,20.06
2023-04-14T15:54:53.072Z,20.50
2023-04-14T15:55:54.537Z,20.33
2023-04-14T15:56:56.094Z,20.48
2023-04-14T15:57:57.589Z,19.24
2023-04-14T15:58:58.952Z,19.70
2023-04-14T16:00:01.931Z,18.82
2023-04-14T16:01:07.283Z,18.41
2023-04-14T16:02:08.784Z,17.91
2023-04-14T16:03:11.900Z,17.92
2023-04-14T16:04:13.423Z,17.54
2023-04-14T16:05:14.969Z,17.10
2023-04-14T16:06:16.905Z,16.56
2023-04-14T16:07:18.297Z,16.58
2023-04-14T16:08:19.836Z,16.56
2023-04-14T16:09:21.312Z,16.51
2023-04-14T16:10:23.217Z,15.91
2023-04-14T16:11:25.140Z,16.00
2023-04-14T16:12:27.510Z,15.96
2023-04-14T16:13:29.656Z,15.73
2023-04-14T16:14:32.315Z,15.55
2023-04-14T16:15:34.997Z,15.31
2023-04-14T16:16:36.796Z,15.33
2023-04-14T16:17:38.240Z,15.13
2023-04-14T16:18:39.580Z,14.97
2023-04-14T16:19:41.085Z,14.90
2023-04-14T16:20:42.591Z,14.83
2023-04-14T16:21:44.010Z,14.82
2023-04-14T16:22:46.361Z,15.00
2023-04-14T16:23:47.719Z,15.52
2023-04-14T16:24:49.116Z,15.71
2023-04-14T16:25:50.539Z,16.16
2023-04-14T16:26:51.863Z,16.18
2023-04-14T16:27:53.507Z,16.13
2023-04-14T16:28:54.871Z,15.93
2023-04-14T16:29:56.595Z,15.79
2023-04-14T16:31:02.772Z,15.21
2023-04-14T16:32:04.279Z,15.38
2023-04-14T16:33:05.920Z,15.74
2023-04-14T16:34:07.820Z,16.30
2023-04-14T16:35:09.509Z,16.28
2023-04-14T16:36:11.213Z,16.32
2023-04-14T16:37:12.968Z,16.75
2023-04-14T16:38:14.349Z,16.80
2023-04-14T16:39:15.732Z,16.82
2023-04-14T16:40:17.404Z,16.86
2023-04-14T16:41:18.842Z,16.71
2023-04-14T16:42:23.960Z,16.54
2023-04-14T16:43:28.624Z,16.70
2023-04-14T16:44:30.542Z,16.84
2023-04-14T16:45:32.128Z,16.76
2023-04-14T16:46:33.650Z,16.77
2023-04-14T16:47:35.806Z,16.69
2023-04-14T16:48:37.248Z,16.51
2023-04-14T16:49:38.639Z,16.40
2023-04-14T16:50:40.538Z,16.03
2023-04-14T16:51:42.377Z,15.99
2023-04-14T16:52:43.865Z,15.86
2023-04-14T16:53:45.290Z,16.21
2023-04-14T16:54:46.673Z,15.87
2023-04-14T16:55:48.124Z,15.48
2023-04-14T16:56:49.463Z,15.37
2023-04-14T16:57:50.944Z,15.29
2023-04-14T16:58:52.405Z,15.15
2023-04-14T16:59:53.853Z,15.18
2023-04-14T17:00:55.698Z,15.09
2023-04-14T17:01:57.672Z,14.78
2023-04-14T17:02:59.368Z,14.87
2023-04-14T17:04:01.103Z,14.70
2023-04-14T17:05:03.473Z,14.55
2023-04-14T17:06:05.262Z,14.65
2023-04-14T17:07:07.047Z,14.56
2023-04-14T17:08:08.407Z,14.23
2023-04-14T17:09:09.824Z,13.86
2023-04-14T17:10:11.839Z,14.01
